Terminal Aerodrome Forecast
Issued by NWS Charleston, WV

Current Version | Previous Version | Graphics & Text | Print | Product List | Glossary On
Versions: 1 2 3 4 5 6 7 8 9 10 11 12 13 14 15 16 17 18 19 20 21
290
FTUS41 KRLX 110538
TAFBKW
TAF
KBKW 110538Z 1106/1206 29009G17KT 2SM -SN BKN017 BKN024 OVC028
     FM111000 30010G17KT 5SM -SN OVC028
     FM111700 30010G17KT P6SM BKN035
     FM111900 30010G15KT P6SM SCT040
     FM120100 31006KT P6SM BKN250=

USA.gov is the U.S. government's official web portal to all federal, state and local government web resources and services.